Time;durP1;ratioP1;P1;durP2;ratioP2;P2;SDS_P1;SDS_P2;PMS_P1;PMS_P2;Temp;Humidity;BMP_temperature;BMP_pressure;BME280_temperature;BME280_humidity;BME280_pressure;Samples;Min_cycle;Max_cycle;Signal;HPM_P1;HPM_P2
2022/07/03 00:00:33;;;;;;;6.13;2.65;;;;;;;25.45;66.17;100608.13;4911017;28;20036;-84
2022/07/03 00:02:59;;;;;;;9.90;3.25;;;;;;;25.41;66.13;100606.97;4905078;28;20519;-84
2022/07/03 00:05:25;;;;;;;11.05;3.22;;;;;;;25.42;65.86;100611.34;4907389;29;20064;-85
2022/07/03 00:07:51;;;;;;;13.52;2.70;;;;;;;25.45;65.68;100618.97;4916171;28;20064;-83
2022/07/03 00:10:17;;;;;;;13.43;3.08;;;;;;;25.41;65.85;100620.56;4916045;29;20451;-82
2022/07/03 00:12:45;;;;;;;11.10;3.30;;;;;;;25.40;66.27;100611.59;4915598;28;20036;-84
2022/07/03 00:15:11;;;;;;;14.82;3.33;;;;;;;25.34;66.66;100614.50;4915826;29;20102;-86
2022/07/03 00:17:37;;;;;;;15.23;3.10;;;;;;;25.31;66.92;100623.16;4915645;29;20362;-85
2022/07/03 00:20:02;;;;;;;10.93;2.72;;;;;;;25.31;66.44;100618.56;4914616;29;20043;-84
2022/07/03 00:22:32;;;;;;;11.30;3.30;;;;;;;25.26;67.55;100623.09;4915633;29;20091;-84
2022/07/03 00:25:04;;;;;;;7.82;3.20;;;;;;;25.23;67.38;100629.88;4915975;28;20044;-82
2022/07/03 00:27:33;;;;;;;13.57;3.75;;;;;;;25.18;68.15;100625.22;4915457;29;20036;-84
2022/07/03 00:30:00;;;;;;;10.93;3.22;;;;;;;25.17;68.04;100620.03;4914452;28;20076;-84
2022/07/03 00:32:27;;;;;;;8.43;3.05;;;;;;;25.23;67.75;100620.91;4915940;29;20114;-87
2022/07/03 00:34:55;;;;;;;13.88;3.63;;;;;;;25.23;67.73;100618.19;4914712;29;20040;-88
2022/07/03 00:37:21;;;;;;;6.78;2.97;;;;;;;25.35;66.87;100618.88;4915676;29;20075;-86
2022/07/03 00:39:48;;;;;;;11.13;3.13;;;;;;;25.50;66.43;100610.88;4915377;29;20036;-86
2022/07/03 00:42:15;;;;;;;14.60;3.42;;;;;;;25.32;67.63;100619.38;4898832;29;20126;-89
2022/07/03 00:45:02;;;;;;;14.95;2.85;;;;;;;25.11;68.42;100623.78;4915374;29;20074;-86
2022/07/03 00:47:27;;;;;;;9.32;3.00;;;;;;;25.09;68.59;100618.59;4915481;29;20454;-84
2022/07/03 00:49:57;;;;;;;6.28;2.60;;;;;;;25.05;68.78;100613.94;4915776;29;20079;-86
2022/07/03 00:52:23;;;;;;;6.28;3.00;;;;;;;25.09;69.06;100617.81;4915384;29;20452;-87
2022/07/03 00:54:57;;;;;;;11.52;3.20;;;;;;;24.96;69.62;100621.69;4914102;29;20056;-87
2022/07/03 00:57:25;;;;;;;10.55;3.30;;;;;;;24.89;70.05;100615.66;4915502;29;20397;-87
2022/07/03 00:59:51;;;;;;;10.95;3.20;;;;;;;24.86;70.23;100615.38;4915150;29;20194;-85
2022/07/03 01:02:42;;;;;;;11.50;3.05;;;;;;;25.00;69.33;100606.56;4915487;29;20393;-85
2022/07/03 01:05:19;;;;;;;7.88;2.97;;;;;;;24.96;69.53;100612.75;4915377;29;20340;-86
2022/07/03 01:08:14;;;;;;;8.95;3.17;;;;;;;24.90;69.72;100614.59;4915404;29;20059;-86
2022/07/03 01:11:01;;;;;;;9.60;3.40;;;;;;;24.86;70.39;100610.75;4914249;28;20066;-86
2022/07/03 01:13:39;;;;;;;11.35;3.17;;;;;;;24.87;70.09;100617.81;4915764;29;20032;-88
2022/07/03 01:16:51;;;;;;;11.38;3.20;;;;;;;24.92;70.29;100611.63;4914054;29;20063;-87
2022/07/03 01:19:30;;;;;;;11.70;3.75;;;;;;;24.94;70.07;100604.06;4914779;29;20041;-86
2022/07/03 01:22:29;;;;;;;10.52;3.03;;;;;;;24.90;70.17;100606.44;4914162;29;20098;-86
2022/07/03 01:25:14;;;;;;;7.72;3.10;;;;;;;24.87;69.81;100603.44;4915163;29;20067;-87
2022/07/03 01:28:10;;;;;;;12.40;2.97;;;;;;;24.85;70.18;100598.28;4914141;29;20040;-86
2022/07/03 01:30:40;;;;;;;10.70;3.33;;;;;;;24.80;70.28;100609.00;4915262;29;20051;-86
2022/07/03 01:33:09;;;;;;;12.57;3.25;;;;;;;24.75;70.80;100606.25;4914641;29;20039;-84
2022/07/03 01:35:37;;;;;;;8.70;3.03;;;;;;;24.71;70.81;100602.41;4914764;29;20079;-83
2022/07/03 01:38:09;;;;;;;11.95;3.28;;;;;;;24.77;70.51;100597.84;4916010;29;20040;-84
2022/07/03 01:40:37;;;;;;;8.32;2.78;;;;;;;24.93;69.54;100595.09;4910548;29;20070;-84
2022/07/03 01:43:05;;;;;;;11.57;3.58;;;;;;;24.99;69.45;100594.06;4913558;29;20166;-85
2022/07/03 01:45:34;;;;;;;6.55;2.70;;;;;;;25.05;69.07;100600.41;4914800;29;20028;-86
2022/07/03 01:48:02;;;;;;;6.43;3.08;;;;;;;25.09;68.92;100593.38;4914618;29;20040;-86
2022/07/03 01:50:29;;;;;;;12.32;3.40;;;;;;;25.03;69.72;100589.78;4914601;29;20127;-86
2022/07/03 01:52:56;;;;;;;6.75;2.85;;;;;;;25.18;68.62;100592.66;4914967;29;20512;-88
2022/07/03 01:55:23;;;;;;;5.90;3.00;;;;;;;25.18;68.38;100584.53;4914836;29;20043;-88
2022/07/03 01:57:50;;;;;;;10.65;3.28;;;;;;;25.22;68.00;100581.31;4915102;29;20044;-86
2022/07/03 02:00:19;;;;;;;7.65;3.03;;;;;;;24.98;69.15;100580.78;4915038;28;20059;-87
2022/07/03 02:03:06;;;;;;;10.23;3.20;;;;;;;24.85;70.42;100584.72;4915157;29;20032;-86
2022/07/03 02:05:44;;;;;;;10.50;3.08;;;;;;;24.66;71.58;100586.88;4916567;29;20036;-86
2022/07/03 02:08:44;;;;;;;11.27;3.15;;;;;;;24.69;71.24;100582.88;4918290;29;20067;-86
2022/07/03 02:11:19;;;;;;;10.93;3.33;;;;;;;24.65;71.30;100582.56;4920945;29;20425;-87
2022/07/03 02:13:47;;;;;;;7.60;3.15;;;;;;;24.61;71.88;100575.19;4917837;29;20036;-88
2022/07/03 02:16:18;;;;;;;15.80;3.58;;;;;;;24.67;71.68;100574.16;4914746;28;20119;-87
2022/07/03 02:18:44;;;;;;;9.02;3.60;;;;;;;24.78;71.28;100575.94;4913823;29;20460;-87
2022/07/03 02:21:17;;;;;;;8.15;3.00;;;;;;;24.82;70.62;100574.38;4915065;29;20040;-90
2022/07/03 02:23:53;;;;;;;11.02;3.20;;;;;;;24.80;70.92;100578.38;4914207;29;20045;-87
2022/07/03 02:26:26;;;;;;;7.40;3.40;;;;;;;24.85;70.73;100576.59;4913496;29;20068;-85
2022/07/03 02:29:04;;;;;;;10.30;3.10;;;;;;;24.98;70.10;100581.59;4915859;29;20036;-85
2022/07/03 02:31:43;;;;;;;9.93;2.90;;;;;;;25.02;69.64;100579.22;4917690;29;20040;-85
2022/07/03 02:34:23;;;;;;;16.10;3.28;;;;;;;24.86;71.12;100578.19;4916262;28;20455;-85
2022/07/03 02:36:53;;;;;;;9.98;3.05;;;;;;;24.65;71.60;100587.97;4917612;29;20122;-86
2022/07/03 02:39:37;;;;;;;7.68;2.90;;;;;;;24.51;72.66;100585.91;4918267;29;20098;-85
2022/07/03 02:42:12;;;;;;;10.52;2.97;;;;;;;24.33;73.39;100588.91;4920350;29;20063;-86
2022/07/03 02:44:51;;;;;;;11.15;3.55;;;;;;;24.27;73.92;100590.72;4923593;29;20174;-87
2022/07/03 02:47:32;;;;;;;8.98;2.95;;;;;;;24.23;74.46;100594.19;4933180;29;20039;-87
2022/07/03 02:50:10;;;;;;;11.23;3.47;;;;;;;24.27;73.92;100590.72;4928860;29;20048;-88
2022/07/03 02:52:36;;;;;;;7.90;3.20;;;;;;;24.24;74.77;100595.81;4940006;29;20044;-86
2022/07/03 02:55:29;;;;;;;10.73;3.13;;;;;;;24.14;75.29;100588.38;4932369;29;20478;-87
2022/07/03 02:58:10;;;;;;;7.63;2.72;;;;;;;24.17;74.57;100590.59;4925199;28;20075;-89
2022/07/03 03:00:42;;;;;;;10.50;3.70;;;;;;;24.11;75.15;100591.56;4917422;29;20063;-88
2022/07/03 03:03:08;;;;;;;10.07;3.33;;;;;;;24.00;75.22;100578.91;4918693;29;20050;-88
2022/07/03 03:05:53;;;;;;;8.82;3.22;;;;;;;23.99;75.25;100588.97;4918430;29;20111;-88
2022/07/03 03:08:42;;;;;;;9.85;3.47;;;;;;;23.94;75.71;100586.16;4916937;28;20394;-88
2022/07/03 03:11:24;;;;;;;8.57;3.40;;;;;;;23.90;75.53;100574.19;4917022;28;20118;-87
2022/07/03 03:13:54;;;;;;;13.33;4.17;;;;;;;23.98;75.39;100576.47;4916804;29;20050;-87
2022/07/03 03:16:20;;;;;;;11.73;3.58;;;;;;;24.00;75.65;100579.75;4917695;29;20099;-87
2022/07/03 03:18:47;;;;;;;10.82;3.78;;;;;;;23.98;75.22;100576.47;4917109;28;20052;-87
2022/07/03 03:21:16;;;;;;;10.73;3.40;;;;;;;23.97;75.46;100574.00;4917588;29;20385;-89
2022/07/03 03:23:51;;;;;;;13.23;3.45;;;;;;;24.06;74.95;100580.66;4917537;29;20036;-90
2022/07/03 03:26:21;;;;;;;7.72;3.13;;;;;;;24.01;75.66;100586.81;4916366;28;20099;-86
2022/07/03 03:28:48;;;;;;;12.80;3.85;;;;;;;23.98;75.26;100589.19;4923896;29;20094;-86
2022/07/03 03:31:14;;;;;;;9.90;3.30;;;;;;;23.91;75.95;100593.94;4920053;29;20040;-85
2022/07/03 03:33:41;;;;;;;8.90;3.10;;;;;;;23.83;76.79;100599.81;4917240;29;20040;-86
2022/07/03 03:36:12;;;;;;;8.88;2.85;;;;;;;23.84;76.97;100598.72;4916932;29;20481;-89
2022/07/03 03:38:39;;;;;;;8.00;3.35;;;;;;;23.78;77.92;100602.41;4917074;29;20040;-86
2022/07/03 03:41:08;;;;;;;11.02;3.50;;;;;;;23.66;78.75;100595.19;4917056;29;20028;-86
2022/07/03 03:43:35;;;;;;;12.25;3.60;;;;;;;23.67;79.34;100590.59;4917172;29;20041;-87
2022/07/03 03:46:02;;;;;;;10.63;3.45;;;;;;;23.66;79.33;100595.19;4916839;29;20102;-86
2022/07/03 03:48:28;;;;;;;10.70;3.50;;;;;;;23.74;79.45;100596.66;4917528;29;20054;-87
2022/07/03 03:50:56;;;;;;;16.75;3.50;;;;;;;23.86;78.48;100592.00;4916765;29;20036;-85
2022/07/03 03:53:23;;;;;;;12.85;3.70;;;;;;;23.76;79.24;100594.56;4916753;29;20067;-87
2022/07/03 03:56:14;;;;;;;8.50;3.60;;;;;;;23.83;79.19;100606.00;4916711;28;20476;-84
2022/07/03 03:58:41;;;;;;;14.65;3.58;;;;;;;23.79;79.95;100604.88;4919530;29;20152;-88
2022/07/03 04:01:08;;;;;;;10.18;3.33;;;;;;;23.79;80.12;100604.88;4916958;29;20048;-86
2022/07/03 04:03:35;;;;;;;10.30;3.75;;;;;;;23.69;80.47;100604.72;4915919;29;20036;-87
2022/07/03 04:06:01;;;;;;;16.52;3.90;;;;;;;23.65;81.46;100604.38;4918274;29;20043;-86
2022/07/03 04:08:27;;;;;;;7.15;3.78;;;;;;;23.64;81.37;100613.56;4919360;29;20044;-87
2022/07/03 04:10:54;;;;;;;12.40;4.03;;;;;;;23.70;81.29;100610.97;4927842;29;20032;-85
2022/07/03 04:13:19;;;;;;;11.57;4.03;;;;;;;23.83;80.87;100613.34;4934665;29;20052;-85
2022/07/03 04:15:46;;;;;;;14.02;3.75;;;;;;;23.77;81.63;100611.59;4934660;29;20028;-85
2022/07/03 04:18:12;;;;;;;13.90;4.13;;;;;;;23.76;81.23;100615.38;4933848;28;20161;-85
2022/07/03 04:20:38;;;;;;;11.80;3.65;;;;;;;23.95;80.27;100614.06;4930520;28;20040;-86
2022/07/03 04:23:04;;;;;;;18.88;3.60;;;;;;;23.91;80.05;100618.31;4934542;29;20032;-86
2022/07/03 04:25:30;;;;;;;11.43;3.60;;;;;;;23.91;80.24;100619.16;4934279;29;20041;-86
2022/07/03 04:27:55;;;;;;;11.50;3.60;;;;;;;23.96;80.18;100624.63;4933838;29;20032;-85
2022/07/03 04:30:21;;;;;;;8.98;3.53;;;;;;;23.99;79.86;100620.63;4916459;28;20043;-87
2022/07/03 04:32:47;;;;;;;13.27;3.22;;;;;;;23.99;80.04;100621.44;4917250;29;20442;-87
2022/07/03 04:35:13;;;;;;;14.35;3.53;;;;;;;24.14;78.78;100629.81;4916891;29;20036;-86
2022/07/03 04:37:39;;;;;;;9.48;3.33;;;;;;;24.33;76.78;100629.56;4916677;29;20121;-85
2022/07/03 04:40:05;;;;;;;8.43;3.38;;;;;;;24.36;76.28;100620.94;4914783;28;20075;-85
2022/07/03 04:42:31;;;;;;;9.55;3.10;;;;;;;24.42;75.69;100637.00;4915506;29;20040;-85
2022/07/03 04:44:56;;;;;;;9.52;3.72;;;;;;;24.43;75.04;100632.38;4915897;29;20040;-86
2022/07/03 04:47:22;;;;;;;11.00;3.70;;;;;;;24.43;74.57;100637.78;4914902;28;20111;-87
2022/07/03 04:49:47;;;;;;;12.65;3.88;;;;;;;24.49;74.84;100631.41;4915283;28;20047;-85
2022/07/03 04:52:13;;;;;;;13.73;3.70;;;;;;;24.47;74.68;100638.94;4915598;29;20033;-88
2022/07/03 04:54:38;;;;;;;12.88;3.30;;;;;;;24.61;73.69;100643.75;4916213;29;20175;-86
2022/07/03 04:57:05;;;;;;;10.38;3.20;;;;;;;24.70;73.42;100633.28;4915170;29;20044;-87
2022/07/03 04:59:30;;;;;;;14.05;3.60;;;;;;;24.72;73.27;100638.47;4915216;28;20127;-86
2022/07/03 05:01:56;;;;;;;12.57;3.63;;;;;;;24.82;73.06;100636.75;4914779;29;20123;-85
2022/07/03 05:04:22;;;;;;;8.65;3.53;;;;;;;24.91;73.14;100637.94;4917000;29;20032;-86
2022/07/03 05:06:48;;;;;;;11.73;3.47;;;;;;;24.88;73.97;100641.16;4915636;29;20099;-89
2022/07/03 05:09:13;;;;;;;9.70;3.90;;;;;;;24.90;73.57;100638.16;4916882;29;20099;-89
2022/07/03 05:11:40;;;;;;;10.93;4.03;;;;;;;24.86;74.71;100648.69;4915366;29;20021;-87
2022/07/03 05:14:07;;;;;;;10.38;3.47;;;;;;;24.77;75.68;100644.75;4915271;28;20036;-87
2022/07/03 05:16:33;;;;;;;15.75;3.35;;;;;;;24.88;74.72;100648.47;4914396;28;20067;-85
2022/07/03 05:19:00;;;;;;;15.35;3.60;;;;;;;24.86;74.93;100648.69;4922910;29;20036;-89
2022/07/03 05:21:26;;;;;;;13.85;3.63;;;;;;;24.85;75.70;100652.50;4930205;29;20124;-88
2022/07/03 05:23:51;;;;;;;17.67;3.78;;;;;;;24.95;75.09;100649.91;4916054;29;20036;-87
2022/07/03 05:26:17;;;;;;;14.68;3.70;;;;;;;25.03;74.74;100646.72;4914387;28;20123;-85
2022/07/03 05:28:43;;;;;;;13.50;4.07;;;;;;;25.12;75.15;100647.13;4916438;28;20685;-88
2022/07/03 05:31:09;;;;;;;14.70;4.90;;;;;;;25.27;75.28;100649.16;4918464;29;20115;-85
2022/07/03 05:33:35;;;;;;;7.05;3.17;;;;;;;25.33;74.79;100648.13;4917761;29;20062;-84
2022/07/03 05:36:01;;;;;;;10.25;3.60;;;;;;;25.47;74.17;100650.19;4915989;29;20036;-87
2022/07/03 05:41:13;;;;;;;10.32;3.55;;;;;;;25.77;72.05;100646.97;4916896;28;20040;-87
2022/07/03 05:43:41;;;;;;;11.05;3.38;;;;;;;25.97;70.19;100643.59;4915707;29;20111;-84
2022/07/03 05:46:07;;;;;;;10.05;3.63;;;;;;;26.13;69.13;100642.63;4915348;29;20051;-86
2022/07/03 05:48:33;;;;;;;13.13;3.50;;;;;;;26.23;68.68;100644.59;4899063;28;20032;-88
2022/07/03 05:50:58;;;;;;;14.85;3.45;;;;;;;26.32;68.01;100646.56;4915038;29;20051;-85
2022/07/03 05:53:24;;;;;;;15.05;3.40;;;;;;;26.35;68.13;100650.69;4900867;28;20036;-84
2022/07/03 05:55:49;;;;;;;20.17;3.53;;;;;;;26.53;67.87;100656.50;4915321;29;20409;-85
2022/07/03 05:58:15;;;;;;;11.55;3.47;;;;;;;26.76;66.62;100652.50;4915444;29;20028;-87
2022/07/03 06:00:42;;;;;;;16.60;3.22;;;;;;;26.96;65.11;100651.81;4916424;29;20036;-86
2022/07/03 06:03:07;;;;;;;14.98;3.70;;;;;;;27.06;62.30;100660.81;4915410;29;20533;-86
2022/07/03 06:05:33;;;;;;;12.60;3.20;;;;;;;27.23;62.01;100664.16;4928138;28;20088;-82
2022/07/03 06:07:59;;;;;;;7.57;3.28;;;;;;;27.39;63.26;100669.63;4926370;28;20179;-85
2022/07/03 06:10:26;;;;;;;20.17;4.18;;;;;;;27.52;64.02;100666.41;4925266;29;20114;-85
2022/07/03 06:12:52;;;;;;;11.57;4.38;;;;;;;27.56;63.01;100664.78;4920387;29;20037;-86
2022/07/03 06:15:17;;;;;;;11.70;4.00;;;;;;;27.79;61.17;100669.69;4918749;29;20124;-86
2022/07/03 06:17:43;;;;;;;11.80;3.40;;;;;;;28.15;59.66;100667.81;4918501;29;20032;-86
2022/07/03 06:20:10;;;;;;;13.32;3.78;;;;;;;28.39;57.22;100674.31;4918192;28;20102;-86
2022/07/03 06:22:36;;;;;;;13.68;4.63;;;;;;;28.47;57.31;100671.00;4918570;29;20043;-85
2022/07/03 06:25:01;;;;;;;12.23;4.70;;;;;;;28.65;56.09;100675.06;4917384;28;20112;-85
2022/07/03 06:27:28;;;;;;;7.82;3.33;;;;;;;29.06;54.99;100682.03;4901559;28;20040;-84
2022/07/03 06:29:53;;;;;;;12.63;4.65;;;;;;;29.19;52.95;100681.41;4918006;29;20120;-87
2022/07/03 06:32:19;;;;;;;14.23;4.38;;;;;;;29.18;53.20;100685.25;4917734;29;20048;-85
2022/07/03 06:34:45;;;;;;;11.35;4.35;;;;;;;29.03;53.28;100679.88;4917333;28;20036;-85
2022/07/03 06:37:11;;;;;;;14.60;3.80;;;;;;;29.04;53.55;100683.38;4917420;28;20036;-87
2022/07/03 06:39:36;;;;;;;10.75;3.30;;;;;;;29.31;53.34;100677.53;4918784;29;20119;-85
2022/07/03 06:42:02;;;;;;;10.48;3.47;;;;;;;29.60;52.39;100679.25;4919041;29;20064;-88
2022/07/03 06:44:28;;;;;;;10.25;3.40;;;;;;;30.07;50.91;100681.38;4924692;28;20072;-86
2022/07/03 06:46:54;;;;;;;19.70;4.15;;;;;;;30.00;50.33;100686.34;4931906;29;20055;-86
2022/07/03 06:49:19;;;;;;;10.35;3.85;;;;;;;29.72;51.33;100692.59;4933713;29;20095;-87
2022/07/03 06:51:45;;;;;;;9.30;3.63;;;;;;;30.22;49.82;100684.00;4940906;29;20020;-86
2022/07/03 06:54:14;;;;;;;9.52;3.65;;;;;;;30.62;48.47;100681.97;4920899;28;20079;-83
2022/07/03 06:56:42;;;;;;;6.95;3.35;;;;;;;30.71;48.56;100691.16;4917436;29;20036;-86
2022/07/03 06:59:08;;;;;;;4.95;3.10;;;;;;;30.73;47.79;100688.94;4918101;29;20583;-84
2022/07/03 07:01:36;;;;;;;12.18;3.33;;;;;;;30.93;47.33;100696.06;4918648;29;20486;-86
2022/07/03 07:04:02;;;;;;;6.82;3.50;;;;;;;31.16;45.39;100676.91;4917907;29;20075;-85
2022/07/03 07:06:28;;;;;;;9.95;3.35;;;;;;;30.97;46.17;100684.28;4917187;29;20042;-83
2022/07/03 07:08:54;;;;;;;10.15;3.17;;;;;;;30.71;46.55;100677.47;4918541;29;20116;-83
2022/07/03 07:11:19;;;;;;;11.93;3.50;;;;;;;30.70;46.83;100684.03;4927343;29;20488;-85
2022/07/03 07:13:45;;;;;;;12.75;2.90;;;;;;;31.34;44.74;100677.22;4918870;29;20041;-85
2022/07/03 07:16:13;;;;;;;6.50;2.80;;;;;;;31.72;44.43;100681.59;4918147;29;20044;-83
2022/07/03 07:18:43;;;;;;;10.40;2.90;;;;;;;32.47;42.82;100689.66;4917428;29;20040;-85
2022/07/03 07:21:09;;;;;;;11.35;2.58;;;;;;;32.56;43.14;100677.66;4917480;28;20416;-84
2022/07/03 07:23:34;;;;;;;7.38;2.83;;;;;;;32.73;42.66;100677.09;4917335;29;20378;-86
2022/07/03 07:26:00;;;;;;;18.00;3.25;;;;;;;32.41;42.76;100680.72;4915702;29;20036;-86
2022/07/03 07:28:25;;;;;;;12.25;3.25;;;;;;;32.04;43.62;100678.91;4920971;29;20127;-84
2022/07/03 07:30:54;;;;;;;7.43;2.65;;;;;;;31.78;44.30;100674.94;4913846;29;20040;-83
2022/07/03 07:33:21;;;;;;;13.32;3.63;;;;;;;32.43;43.18;100674.91;4906280;28;20037;-85
2022/07/03 07:35:47;;;;;;;16.50;4.68;;;;;;;32.92;42.02;100669.53;4900658;29;20119;-85
2022/07/03 07:38:12;;;;;;;12.80;3.25;;;;;;;32.72;41.04;100672.69;4904997;29;20063;-86
2022/07/03 07:40:38;;;;;;;11.45;2.83;;;;;;;32.42;41.81;100665.03;4903843;28;20045;-88
2022/07/03 07:43:04;;;;;;;6.32;2.72;;;;;;;32.98;40.43;100665.56;4905778;29;20098;-86
2022/07/03 07:45:30;;;;;;;7.47;2.60;;;;;;;32.91;40.21;100656.94;4907310;29;20068;-89
2022/07/03 07:47:56;;;;;;;11.95;2.53;;;;;;;33.09;40.55;100658.75;4903237;28;20059;-86
2022/07/03 07:50:22;;;;;;;9.73;2.20;;;;;;;33.13;40.02;100659.78;4900056;28;20520;-88
2022/07/03 07:52:48;;;;;;;9.90;2.42;;;;;;;33.77;38.74;100663.25;4901031;28;20072;-86
2022/07/03 07:55:13;;;;;;;13.35;2.60;;;;;;;34.96;36.51;100662.22;4901003;28;20036;-90
2022/07/03 07:57:40;;;;;;;9.73;3.47;;;;;;;34.77;35.95;100658.91;4899517;28;20095;-92
2022/07/03 08:00:14;;;;;;;8.73;2.72;;;;;;;34.24;37.29;100668.09;4899064;29;20045;-88
2022/07/03 08:05:35;;;;;;;10.35;2.75;;;;;;;33.92;37.98;100668.34;4940846;28;21067;-89
2022/07/03 08:08:29;;;;;;;16.85;2.80;;;;;;;34.07;38.41;100656.94;4980778;28;20044;-88
2022/07/03 08:11:08;;;;;;;7.82;2.55;;;;;;;34.01;38.63;100660.97;4917874;29;20061;-88
2022/07/03 08:14:16;;;;;;;7.18;2.40;;;;;;;34.84;35.79;100659.28;4927780;29;20017;-87
2022/07/03 08:17:06;;;;;;;6.97;2.60;;;;;;;34.37;35.70;100658.09;4913075;29;20047;-86
2022/07/03 08:25:14;;;;;;;6.47;2.38;;;;;;;35.82;32.50;100651.28;4921739;29;20052;-89
2022/07/03 08:27:39;;;;;;;8.10;2.30;;;;;;;35.43;33.61;100645.94;4924983;28;20037;-93
2022/07/03 08:30:09;;;;;;;7.70;2.42;;;;;;;35.90;33.15;100650.44;4905489;28;20075;-91
2022/07/03 08:33:26;;;;;;;8.80;2.88;;;;;;;34.98;34.49;100648.13;4916431;29;20059;-89
2022/07/03 08:36:25;;;;;;;10.88;2.60;;;;;;;35.17;34.20;100641.19;4908780;28;20044;-87
2022/07/03 08:39:39;;;;;;;14.68;3.03;;;;;;;35.43;33.40;100640.41;4915607;28;20044;-91
2022/07/03 08:42:28;;;;;;;7.50;2.55;;;;;;;35.71;33.58;100637.00;4924666;28;20054;-89
2022/07/03 08:45:00;;;;;;;12.77;2.35;;;;;;;36.29;32.61;100639.13;4917611;29;20024;-90
2022/07/03 08:47:49;;;;;;;7.18;2.40;;;;;;;36.28;31.85;100636.72;5292617;23;20079;-89
2022/07/03 08:50:21;;;;;;;7.63;2.55;;;;;;;36.41;32.22;100640.38;4912977;29;20032;-88
2022/07/03 08:52:48;;;;;;;10.70;3.10;;;;;;;35.39;33.18;100636.69;4893417;28;20040;-86
2022/07/03 08:55:20;;;;;;;9.90;2.90;;;;;;;35.20;34.01;100635.03;4900695;29;20030;-90
2022/07/03 08:57:54;;;;;;;5.97;2.40;;;;;;;35.96;32.59;100643.63;4885117;28;20020;-91
2022/07/03 09:00:21;;;;;;;9.80;2.45;;;;;;;35.96;33.40;100640.03;4879905;28;20067;-89
2022/07/03 09:02:48;;;;;;;8.93;2.80;;;;;;;35.71;33.23;100639.75;4893780;29;20361;-90
2022/07/03 09:05:16;;;;;;;4.80;2.33;;;;;;;36.05;32.46;100638.88;4892289;28;20025;-86
2022/07/03 09:07:44;;;;;;;6.63;2.50;;;;;;;36.00;32.95;100630.75;4891615;28;20069;-91
2022/07/03 09:10:13;;;;;;;5.97;2.42;;;;;;;36.02;33.02;100642.31;4889712;29;20040;-91
2022/07/03 09:12:40;;;;;;;5.40;2.22;;;;;;;36.02;32.46;100628.50;4889993;29;20080;-89
2022/07/03 09:15:08;;;;;;;13.48;2.88;;;;;;;35.79;32.58;100635.38;4916267;28;20039;-93
2022/07/03 09:17:37;;;;;;;9.95;2.65;;;;;;;35.50;32.73;100632.47;4885664;29;20117;-90
2022/07/03 09:20:07;;;;;;;5.95;2.30;;;;;;;35.54;33.82;100633.41;4902143;29;20048;-88
2022/07/03 09:22:36;;;;;;;7.97;2.38;;;;;;;36.58;32.28;100635.63;4885547;29;20048;-92
2022/07/03 09:25:09;;;;;;;17.70;2.78;;;;;;;37.31;31.50;100629.78;4907567;29;20037;-91
2022/07/03 09:27:37;;;;;;;51.03;28.20;;;;;;;37.15;31.07;100635.13;4905777;29;20041;-92
2022/07/03 09:30:06;;;;;;;16.92;5.13;;;;;;;37.12;31.41;100642.13;4899160;29;20098;-86
2022/07/03 09:32:34;;;;;;;5.03;2.25;;;;;;;36.80;31.29;100634.53;4898098;28;20512;-90
2022/07/03 09:35:20;;;;;;;8.50;2.88;;;;;;;37.44;31.16;100637.00;4890586;29;20072;-92
2022/07/03 09:37:54;;;;;;;10.32;2.50;;;;;;;37.11;30.66;100643.28;4895407;29;20060;-92
2022/07/03 09:40:24;;;;;;;10.43;2.70;;;;;;;37.07;31.11;100628.50;4891470;29;20033;-91
2022/07/03 09:43:06;;;;;;;12.65;2.85;;;;;;;37.56;30.76;100634.31;4891418;29;20071;-94
2022/07/03 09:45:54;;;;;;;9.52;2.40;;;;;;;37.54;30.07;100633.84;4919739;29;20104;-89
2022/07/03 09:48:49;;;;;;;8.05;2.35;;;;;;;37.14;30.21;100628.78;4892762;29;20072;-90
2022/07/03 09:51:29;;;;;;;10.95;2.60;;;;;;;37.58;29.90;100634.78;4886521;29;20037;-88
2022/07/03 09:54:00;;;;;;;11.48;2.70;;;;;;;37.15;29.72;100627.66;4914081;29;20084;-91
2022/07/03 09:56:34;;;;;;;11.48;3.10;;;;;;;36.87;31.20;100618.22;4890031;29;20033;-90
2022/07/03 09:58:59;;;;;;;10.23;2.97;;;;;;;36.95;30.67;100625.66;4890258;29;20040;-90
2022/07/03 10:01:25;;;;;;;13.30;4.18;;;;;;;36.56;30.77;100626.84;4916341;29;20397;-89
2022/07/03 10:03:51;;;;;;;15.43;2.80;;;;;;;36.38;31.29;100618.97;4919433;29;20032;-86
2022/07/03 10:06:17;;;;;;;12.95;2.92;;;;;;;36.85;30.55;100620.53;4889379;28;20056;-86
2022/07/03 10:08:44;;;;;;;10.38;4.38;;;;;;;37.39;30.45;100620.63;4889433;29;20044;-87
2022/07/03 10:11:13;;;;;;;13.20;3.10;;;;;;;37.47;30.27;100622.53;4896283;28;20033;-87
2022/07/03 10:13:40;;;;;;;13.82;3.25;;;;;;;37.40;31.07;100614.75;4885210;29;20044;-88
2022/07/03 10:16:06;;;;;;;9.75;2.60;;;;;;;37.36;30.74;100615.75;4886337;29;20529;-87
2022/07/03 10:18:39;;;;;;;9.02;2.53;;;;;;;37.55;30.00;100618.88;4887475;29;20052;-86
2022/07/03 10:21:06;;;;;;;13.07;3.15;;;;;;;37.33;30.43;100613.66;4886670;29;20037;-85
2022/07/03 10:23:33;;;;;;;15.02;2.72;;;;;;;37.01;31.29;100606.94;4885314;29;20045;-87
2022/07/03 10:25:58;;;;;;;10.55;2.67;;;;;;;36.66;31.83;100603.56;4885180;29;20029;-84
2022/07/03 10:28:24;;;;;;;15.63;3.10;;;;;;;36.02;31.81;100600.91;4884779;28;20031;-86
2022/07/03 10:30:50;;;;;;;11.55;2.60;;;;;;;35.74;31.99;100591.41;4883438;29;20136;-86
2022/07/03 10:33:16;;;;;;;12.23;2.55;;;;;;;35.94;32.38;100590.69;4885052;28;20034;-86
2022/07/03 10:35:44;;;;;;;7.55;2.60;;;;;;;36.36;31.88;100599.19;4887983;28;20517;-88
2022/07/03 10:38:35;;;;;;;4.85;2.13;;;;;;;37.17;31.20;100603.22;4899221;28;20025;-86
2022/07/03 10:46:51;;;;;;;7.32;2.60;;;;;;;37.08;30.69;100593.41;4922312;29;20045;-88
2022/07/03 10:49:17;;;;;;;6.72;2.65;;;;;;;37.33;30.45;100591.53;4986654;28;20048;-87
2022/07/03 10:52:03;;;;;;;12.10;2.92;;;;;;;37.45;30.11;100600.72;4904742;29;20037;-86
2022/07/03 10:54:48;;;;;;;8.85;3.20;;;;;;;37.66;30.19;100595.97;4982732;28;20080;-86
2022/07/03 10:57:16;;;;;;;11.48;2.70;;;;;;;37.97;29.87;100591.91;4887667;29;20037;-88
2022/07/03 10:59:44;;;;;;;8.68;2.95;;;;;;;37.81;28.77;100591.75;4887907;29;20112;-86
2022/07/03 11:02:38;;;;;;;7.35;2.33;;;;;;;36.50;30.69;100577.63;4912450;29;20064;-87
2022/07/03 11:05:20;;;;;;;12.20;2.72;;;;;;;36.56;31.06;100581.88;4900663;28;20036;-88
2022/07/03 11:07:48;;;;;;;12.02;2.60;;;;;;;36.39;30.73;100576.41;4904713;29;20049;-92
2022/07/03 11:10:16;;;;;;;6.90;2.50;;;;;;;36.74;29.96;100575.09;4883317;29;20096;-91
2022/07/03 11:13:10;;;;;;;8.93;2.70;;;;;;;36.84;29.63;100573.88;4887336;29;20095;-89
2022/07/03 11:15:48;;;;;;;10.02;2.65;;;;;;;37.38;28.68;100572.81;4891847;29;20107;-90
2022/07/03 11:18:33;;;;;;;19.80;3.03;;;;;;;37.33;28.07;100566.66;4900954;29;20056;-85
2022/07/03 11:21:13;;;;;;;15.23;2.72;;;;;;;37.71;28.40;100561.75;4900185;29;20378;-92
2022/07/03 11:24:03;;;;;;;8.95;2.47;;;;;;;37.90;28.07;100550.94;4900853;29;20036;-85
2022/07/03 11:26:29;;;;;;;4.60;2.70;;;;;;;38.00;27.01;100558.00;4897793;29;20175;-86
2022/07/03 11:28:54;;;;;;;6.13;2.55;;;;;;;37.59;27.47;100548.69;4896362;29;20072;-85
2022/07/03 11:31:23;;;;;;;9.30;4.40;;;;;;;37.99;27.86;100542.53;4897646;29;20036;-87
2022/07/03 11:33:51;;;;;;;6.43;1.98;;;;;;;37.71;28.83;100545.97;4898182;29;20051;-84
2022/07/03 11:36:16;;;;;;;8.10;2.60;;;;;;;37.58;28.77;100549.03;4896787;29;20120;-84
2022/07/03 11:39:09;;;;;;;11.60;3.30;;;;;;;37.28;29.09;100542.81;4896836;29;20163;-83
2022/07/03 11:41:34;;;;;;;14.10;4.22;;;;;;;37.14;29.88;100537.56;4905247;28;20048;-86
2022/07/03 11:44:03;;;;;;;10.25;2.53;;;;;;;36.63;30.90;100530.47;4896790;29;20024;-85
2022/07/03 11:46:33;;;;;;;9.93;2.55;;;;;;;36.40;31.67;100525.56;4897568;29;20053;-87
2022/07/03 11:49:12;;;;;;;9.68;2.63;;;;;;;36.27;31.12;100525.47;4880761;28;20040;-89
2022/07/03 11:51:40;;;;;;;5.45;2.50;;;;;;;36.16;31.10;100524.22;4897204;29;20047;-85
2022/07/03 11:54:06;;;;;;;10.77;2.60;;;;;;;35.89;31.16;100513.66;4897510;29;20033;-91